sensor_id;sensor_type;location;lat;lon;timestamp;temperature;humidity
28247;DHT22;66191;53.178;22.058;2023-01-28T00:00:17;1.90;99.90
28247;DHT22;66191;53.178;22.058;2023-01-28T00:03:08;1.90;99.90
28247;DHT22;66191;53.178;22.058;2023-01-28T00:05:40;1.90;99.90
28247;DHT22;66191;53.178;22.058;2023-01-28T00:08:13;1.90;99.90
28247;DHT22;66191;53.178;22.058;2023-01-28T00:10:44;1.90;99.90
28247;DHT22;66191;53.178;22.058;2023-01-28T00:13:15;1.90;99.90
28247;DHT22;66191;53.178;22.058;2023-01-28T00:15:54;1.90;99.90
28247;DHT22;66191;53.178;22.058;2023-01-28T00:18:26;1.90;99.90
28247;DHT22;66191;53.178;22.058;2023-01-28T00:20:57;1.90;99.90
28247;DHT22;66191;53.178;22.058;2023-01-28T00:23:33;1.90;99.90
28247;DHT22;66191;53.178;22.058;2023-01-28T00:26:06;1.90;99.90
28247;DHT22;66191;53.178;22.058;2023-01-28T00:28:41;1.80;99.90
28247;DHT22;66191;53.178;22.058;2023-01-28T00:31:14;1.80;99.90
28247;DHT22;66191;53.178;22.058;2023-01-28T00:33:46;1.80;99.90
28247;DHT22;66191;53.178;22.058;2023-01-28T00:36:18;1.80;99.90
28247;DHT22;66191;53.178;22.058;2023-01-28T00:38:54;1.80;99.90
28247;DHT22;66191;53.178;22.058;2023-01-28T00:41:27;1.80;99.90
28247;DHT22;66191;53.178;22.058;2023-01-28T00:43:59;1.80;99.90
28247;DHT22;66191;53.178;22.058;2023-01-28T00:46:30;1.80;99.90
28247;DHT22;66191;53.178;22.058;2023-01-28T00:49:01;1.80;99.90
28247;DHT22;66191;53.178;22.058;2023-01-28T00:51:33;1.80;99.90
28247;DHT22;66191;53.178;22.058;2023-01-28T00:54:10;1.90;99.90
28247;DHT22;66191;53.178;22.058;2023-01-28T00:56:41;1.90;99.90
28247;DHT22;66191;53.178;22.058;2023-01-28T00:59:12;1.90;99.90
28247;DHT22;66191;53.178;22.058;2023-01-28T01:01:43;1.90;99.90
28247;DHT22;66191;53.178;22.058;2023-01-28T01:04:15;2.00;99.90
28247;DHT22;66191;53.178;22.058;2023-01-28T01:06:53;2.00;99.90
28247;DHT22;66191;53.178;22.058;2023-01-28T01:09:28;2.00;99.90
28247;DHT22;66191;53.178;22.058;2023-01-28T01:11:59;2.00;99.90
28247;DHT22;66191;53.178;22.058;2023-01-28T01:14:30;2.00;99.90
28247;DHT22;66191;53.178;22.058;2023-01-28T01:17:02;2.00;99.90
28247;DHT22;66191;53.178;22.058;2023-01-28T01:19:33;2.00;99.90
28247;DHT22;66191;53.178;22.058;2023-01-28T01:22:03;2.00;99.90
28247;DHT22;66191;53.178;22.058;2023-01-28T01:24:37;2.00;99.90
28247;DHT22;66191;53.178;22.058;2023-01-28T01:27:07;2.00;99.90
28247;DHT22;66191;53.178;22.058;2023-01-28T01:29:39;1.90;99.90
28247;DHT22;66191;53.178;22.058;2023-01-28T01:32:09;1.90;99.90
28247;DHT22;66191;53.178;22.058;2023-01-28T01:34:41;1.90;99.90
28247;DHT22;66191;53.178;22.058;2023-01-28T01:37:11;1.90;99.90
28247;DHT22;66191;53.178;22.058;2023-01-28T01:39:45;1.90;99.90
28247;DHT22;66191;53.178;22.058;2023-01-28T01:42:16;1.90;99.90
28247;DHT22;66191;53.178;22.058;2023-01-28T01:44:58;1.90;99.90
28247;DHT22;66191;53.178;22.058;2023-01-28T01:47:35;1.90;99.90
28247;DHT22;66191;53.178;22.058;2023-01-28T01:50:13;1.90;99.90
28247;DHT22;66191;53.178;22.058;2023-01-28T01:52:47;1.90;99.90
28247;DHT22;66191;53.178;22.058;2023-01-28T01:55:25;1.90;99.90
28247;DHT22;66191;53.178;22.058;2023-01-28T01:58:00;1.90;99.90
28247;DHT22;66191;53.178;22.058;2023-01-28T02:00:32;1.80;99.90
28247;DHT22;66191;53.178;22.058;2023-01-28T02:03:03;1.80;99.90
28247;DHT22;66191;53.178;22.058;2023-01-28T02:05:34;1.80;99.90
28247;DHT22;66191;53.178;22.058;2023-01-28T02:08:05;1.80;99.90
28247;DHT22;66191;53.178;22.058;2023-01-28T02:10:58;1.80;99.90
28247;DHT22;66191;53.178;22.058;2023-01-28T02:13:35;1.80;99.90
28247;DHT22;66191;53.178;22.058;2023-01-28T02:16:07;1.80;99.90
28247;DHT22;66191;53.178;22.058;2023-01-28T02:18:38;1.80;99.90
28247;DHT22;66191;53.178;22.058;2023-01-28T02:21:25;1.80;99.90
28247;DHT22;66191;53.178;22.058;2023-01-28T02:24:15;1.70;99.90
28247;DHT22;66191;53.178;22.058;2023-01-28T02:27:16;1.80;99.90
28247;DHT22;66191;53.178;22.058;2023-01-28T02:29:56;1.70;99.90
28247;DHT22;66191;53.178;22.058;2023-01-28T02:32:32;1.70;99.90
28247;DHT22;66191;53.178;22.058;2023-01-28T02:35:10;1.70;99.90
28247;DHT22;66191;53.178;22.058;2023-01-28T02:37:46;1.70;99.90
28247;DHT22;66191;53.178;22.058;2023-01-28T02:40:22;1.80;99.90
28247;DHT22;66191;53.178;22.058;2023-01-28T02:42:56;1.70;99.90
28247;DHT22;66191;53.178;22.058;2023-01-28T02:45:31;1.70;99.90
28247;DHT22;66191;53.178;22.058;2023-01-28T02:48:16;1.80;99.90
28247;DHT22;66191;53.178;22.058;2023-01-28T02:50:54;1.70;99.90
28247;DHT22;66191;53.178;22.058;2023-01-28T02:53:29;1.70;99.90
28247;DHT22;66191;53.178;22.058;2023-01-28T02:56:18;1.70;99.90
28247;DHT22;66191;53.178;22.058;2023-01-28T02:59:03;1.70;99.90
28247;DHT22;66191;53.178;22.058;2023-01-28T03:02:00;1.70;99.90
28247;DHT22;66191;53.178;22.058;2023-01-28T03:04:37;1.60;99.90
28247;DHT22;66191;53.178;22.058;2023-01-28T03:07:10;1.70;99.90
28247;DHT22;66191;53.178;22.058;2023-01-28T03:09:43;1.70;99.90
28247;DHT22;66191;53.178;22.058;2023-01-28T03:12:17;1.70;99.90
28247;DHT22;66191;53.178;22.058;2023-01-28T03:15:06;1.70;99.90
28247;DHT22;66191;53.178;22.058;2023-01-28T03:17:57;1.70;99.90
28247;DHT22;66191;53.178;22.058;2023-01-28T03:20:50;1.80;99.90
28247;DHT22;66191;53.178;22.058;2023-01-28T03:23:43;1.80;99.90
28247;DHT22;66191;53.178;22.058;2023-01-28T03:26:30;1.80;99.90
28247;DHT22;66191;53.178;22.058;2023-01-28T03:29:17;1.70;99.90
28247;DHT22;66191;53.178;22.058;2023-01-28T03:32:06;1.80;99.90
28247;DHT22;66191;53.178;22.058;2023-01-28T03:34:52;1.80;99.90
28247;DHT22;66191;53.178;22.058;2023-01-28T03:37:37;1.70;99.90
28247;DHT22;66191;53.178;22.058;2023-01-28T03:40:17;1.70;99.90
28247;DHT22;66191;53.178;22.058;2023-01-28T03:42:48;1.70;99.90
28247;DHT22;66191;53.178;22.058;2023-01-28T03:45:41;1.70;99.90
28247;DHT22;66191;53.178;22.058;2023-01-28T03:48:13;1.70;99.90
28247;DHT22;66191;53.178;22.058;2023-01-28T03:50:47;1.70;99.90
28247;DHT22;66191;53.178;22.058;2023-01-28T03:53:19;1.70;99.90
28247;DHT22;66191;53.178;22.058;2023-01-28T03:55:52;1.70;99.90
28247;DHT22;66191;53.178;22.058;2023-01-28T03:58:24;1.70;99.90
28247;DHT22;66191;53.178;22.058;2023-01-28T04:01:14;1.60;99.90
28247;DHT22;66191;53.178;22.058;2023-01-28T04:03:46;1.70;99.90
28247;DHT22;66191;53.178;22.058;2023-01-28T04:06:29;1.70;99.90
28247;DHT22;66191;53.178;22.058;2023-01-28T04:09:21;1.70;99.90
28247;DHT22;66191;53.178;22.058;2023-01-28T04:12:02;1.70;99.90
28247;DHT22;66191;53.178;22.058;2023-01-28T04:14:38;1.70;99.90
28247;DHT22;66191;53.178;22.058;2023-01-28T04:17:13;1.70;99.90
28247;DHT22;66191;53.178;22.058;2023-01-28T04:19:46;1.70;99.90
28247;DHT22;66191;53.178;22.058;2023-01-28T04:22:20;1.70;99.90
28247;DHT22;66191;53.178;22.058;2023-01-28T04:24:51;1.70;99.90
28247;DHT22;66191;53.178;22.058;2023-01-28T04:27:22;1.70;99.90
28247;DHT22;66191;53.178;22.058;2023-01-28T04:29:54;1.70;99.90
28247;DHT22;66191;53.178;22.058;2023-01-28T04:32:37;1.70;99.90
28247;DHT22;66191;53.178;22.058;2023-01-28T04:35:29;1.70;99.90
28247;DHT22;66191;53.178;22.058;2023-01-28T04:38:19;1.60;99.90
28247;DHT22;66191;53.178;22.058;2023-01-28T04:41:00;1.60;99.90
28247;DHT22;66191;53.178;22.058;2023-01-28T04:43:33;1.60;99.90
28247;DHT22;66191;53.178;22.058;2023-01-28T04:46:34;1.60;99.90
28247;DHT22;66191;53.178;22.058;2023-01-28T04:49:15;1.60;99.90
28247;DHT22;66191;53.178;22.058;2023-01-28T04:52:05;1.60;99.90
28247;DHT22;66191;53.178;22.058;2023-01-28T04:55:05;1.60;99.90
28247;DHT22;66191;53.178;22.058;2023-01-28T04:57:37;1.60;99.90
28247;DHT22;66191;53.178;22.058;2023-01-28T05:00:10;1.60;99.90
28247;DHT22;66191;53.178;22.058;2023-01-28T05:02:41;1.60;99.90
28247;DHT22;66191;53.178;22.058;2023-01-28T05:05:12;1.60;99.90
28247;DHT22;66191;53.178;22.058;2023-01-28T05:07:56;1.60;99.90
28247;DHT22;66191;53.178;22.058;2023-01-28T05:10:31;1.60;99.90
28247;DHT22;66191;53.178;22.058;2023-01-28T05:13:02;1.50;99.90
28247;DHT22;66191;53.178;22.058;2023-01-28T05:15:32;1.50;99.90
28247;DHT22;66191;53.178;22.058;2023-01-28T05:18:04;1.50;99.90
28247;DHT22;66191;53.178;22.058;2023-01-28T05:20:40;1.50;99.90
28247;DHT22;66191;53.178;22.058;2023-01-28T05:23:11;1.50;99.90
28247;DHT22;66191;53.178;22.058;2023-01-28T05:25:52;1.50;99.90
28247;DHT22;66191;53.178;22.058;2023-01-28T05:28:23;1.50;99.90
28247;DHT22;66191;53.178;22.058;2023-01-28T05:30:55;1.60;99.90
28247;DHT22;66191;53.178;22.058;2023-01-28T05:33:26;1.50;99.90
28247;DHT22;66191;53.178;22.058;2023-01-28T05:35:58;1.50;99.90
28247;DHT22;66191;53.178;22.058;2023-01-28T05:38:29;1.50;99.90
28247;DHT22;66191;53.178;22.058;2023-01-28T05:41:02;1.60;99.90
28247;DHT22;66191;53.178;22.058;2023-01-28T05:43:33;1.50;99.90
28247;DHT22;66191;53.178;22.058;2023-01-28T05:46:26;1.50;99.90
28247;DHT22;66191;53.178;22.058;2023-01-28T05:49:10;1.50;99.90
28247;DHT22;66191;53.178;22.058;2023-01-28T05:52:11;1.50;99.90
28247;DHT22;66191;53.178;22.058;2023-01-28T05:54:42;1.50;99.90
28247;DHT22;66191;53.178;22.058;2023-01-28T05:57:15;1.50;99.90
28247;DHT22;66191;53.178;22.058;2023-01-28T05:59:47;1.50;99.90
28247;DHT22;66191;53.178;22.058;2023-01-28T06:02:17;1.50;99.90
28247;DHT22;66191;53.178;22.058;2023-01-28T06:04:51;1.50;99.90
28247;DHT22;66191;53.178;22.058;2023-01-28T06:07:21;1.50;99.90
28247;DHT22;66191;53.178;22.058;2023-01-28T06:09:53;1.60;99.90
28247;DHT22;66191;53.178;22.058;2023-01-28T06:12:27;1.60;99.90
28247;DHT22;66191;53.178;22.058;2023-01-28T06:15:17;1.50;99.90
28247;DHT22;66191;53.178;22.058;2023-01-28T06:18:06;1.50;99.90
28247;DHT22;66191;53.178;22.058;2023-01-28T06:20:37;1.50;99.90
28247;DHT22;66191;53.178;22.058;2023-01-28T06:23:09;1.50;99.90
28247;DHT22;66191;53.178;22.058;2023-01-28T06:25:40;1.60;99.90
28247;DHT22;66191;53.178;22.058;2023-01-28T06:28:16;1.50;99.90
28247;DHT22;66191;53.178;22.058;2023-01-28T06:30:48;1.50;99.90
28247;DHT22;66191;53.178;22.058;2023-01-28T06:33:19;1.50;99.90
28247;DHT22;66191;53.178;22.058;2023-01-28T06:35:51;1.50;99.90
28247;DHT22;66191;53.178;22.058;2023-01-28T06:38:21;1.50;99.90
28247;DHT22;66191;53.178;22.058;2023-01-28T06:40:53;1.50;99.90
28247;DHT22;66191;53.178;22.058;2023-01-28T06:43:27;1.50;99.90
28247;DHT22;66191;53.178;22.058;2023-01-28T06:45:58;1.50;99.90
28247;DHT22;66191;53.178;22.058;2023-01-28T06:48:30;1.50;99.90
28247;DHT22;66191;53.178;22.058;2023-01-28T06:51:01;1.50;99.90
28247;DHT22;66191;53.178;22.058;2023-01-28T06:53:32;1.60;99.90
28247;DHT22;66191;53.178;22.058;2023-01-28T06:56:03;1.50;99.90
28247;DHT22;66191;53.178;22.058;2023-01-28T06:58:38;1.50;99.90
28247;DHT22;66191;53.178;22.058;2023-01-28T07:01:10;1.50;99.90
28247;DHT22;66191;53.178;22.058;2023-01-28T07:03:40;1.60;99.90
28247;DHT22;66191;53.178;22.058;2023-01-28T07:06:12;1.60;99.90
28247;DHT22;66191;53.178;22.058;2023-01-28T07:08:43;1.60;99.90
28247;DHT22;66191;53.178;22.058;2023-01-28T07:11:14;1.60;99.90
28247;DHT22;66191;53.178;22.058;2023-01-28T07:13:47;1.60;99.90
28247;DHT22;66191;53.178;22.058;2023-01-28T07:16:18;1.60;99.90
28247;DHT22;66191;53.178;22.058;2023-01-28T07:18:49;1.60;99.90
28247;DHT22;66191;53.178;22.058;2023-01-28T07:21:20;1.60;99.90
28247;DHT22;66191;53.178;22.058;2023-01-28T07:23:50;1.70;99.90
28247;DHT22;66191;53.178;22.058;2023-01-28T07:26:23;1.60;99.90
28247;DHT22;66191;53.178;22.058;2023-01-28T07:28:57;1.60;99.90
28247;DHT22;66191;53.178;22.058;2023-01-28T07:31:28;1.60;99.90
28247;DHT22;66191;53.178;22.058;2023-01-28T07:34:00;1.60;99.90
28247;DHT22;66191;53.178;22.058;2023-01-28T07:36:31;1.60;99.90
28247;DHT22;66191;53.178;22.058;2023-01-28T07:39:03;1.60;99.90
28247;DHT22;66191;53.178;22.058;2023-01-28T07:41:34;1.60;99.90
28247;DHT22;66191;53.178;22.058;2023-01-28T07:44:09;1.60;99.90
28247;DHT22;66191;53.178;22.058;2023-01-28T07:46:41;1.60;99.90
28247;DHT22;66191;53.178;22.058;2023-01-28T07:49:12;1.60;99.90
28247;DHT22;66191;53.178;22.058;2023-01-28T07:51:44;1.60;99.90
28247;DHT22;66191;53.178;22.058;2023-01-28T07:54:17;1.70;99.90
28247;DHT22;66191;53.178;22.058;2023-01-28T07:56:49;1.70;99.90
28247;DHT22;66191;53.178;22.058;2023-01-28T07:59:23;1.60;99.90
28247;DHT22;66191;53.178;22.058;2023-01-28T08:01:54;1.60;99.90
28247;DHT22;66191;53.178;22.058;2023-01-28T08:04:25;1.60;99.90
28247;DHT22;66191;53.178;22.058;2023-01-28T08:06:56;1.60;99.90
28247;DHT22;66191;53.178;22.058;2023-01-28T08:09:28;1.60;99.90
28247;DHT22;66191;53.178;22.058;2023-01-28T08:12:01;1.60;99.90
28247;DHT22;66191;53.178;22.058;2023-01-28T08:14:34;1.60;99.90
28247;DHT22;66191;53.178;22.058;2023-01-28T08:17:05;1.60;99.90
28247;DHT22;66191;53.178;22.058;2023-01-28T08:19:36;1.60;99.90
28247;DHT22;66191;53.178;22.058;2023-01-28T08:22:07;1.60;99.90
28247;DHT22;66191;53.178;22.058;2023-01-28T08:24:38;1.60;99.90
28247;DHT22;66191;53.178;22.058;2023-01-28T08:27:10;1.60;99.90
28247;DHT22;66191;53.178;22.058;2023-01-28T08:29:44;1.60;99.90
28247;DHT22;66191;53.178;22.058;2023-01-28T08:32:15;1.60;99.90
28247;DHT22;66191;53.178;22.058;2023-01-28T08:34:47;1.70;99.90
28247;DHT22;66191;53.178;22.058;2023-01-28T08:37:19;1.60;99.90
28247;DHT22;66191;53.178;22.058;2023-01-28T08:39:50;1.60;99.90
28247;DHT22;66191;53.178;22.058;2023-01-28T08:42:21;1.60;99.90
28247;DHT22;66191;53.178;22.058;2023-01-28T08:44:54;1.60;99.90
28247;DHT22;66191;53.178;22.058;2023-01-28T08:47:26;1.60;99.90
28247;DHT22;66191;53.178;22.058;2023-01-28T08:49:56;1.60;99.90
28247;DHT22;66191;53.178;22.058;2023-01-28T08:52:28;1.70;99.90
28247;DHT22;66191;53.178;22.058;2023-01-28T08:54:58;1.70;99.90
28247;DHT22;66191;53.178;22.058;2023-01-28T08:57:30;1.60;99.90
28247;DHT22;66191;53.178;22.058;2023-01-28T09:00:04;1.70;99.90
28247;DHT22;66191;53.178;22.058;2023-01-28T09:02:37;1.60;99.90
28247;DHT22;66191;53.178;22.058;2023-01-28T09:05:08;1.70;99.90
28247;DHT22;66191;53.178;22.058;2023-01-28T09:07:40;1.70;99.90
28247;DHT22;66191;53.178;22.058;2023-01-28T09:10:11;1.70;99.90
28247;DHT22;66191;53.178;22.058;2023-01-28T09:12:43;1.70;99.90
28247;DHT22;66191;53.178;22.058;2023-01-28T09:15:17;1.70;99.90
28247;DHT22;66191;53.178;22.058;2023-01-28T09:17:48;1.70;99.90
28247;DHT22;66191;53.178;22.058;2023-01-28T09:20:19;1.70;99.90
28247;DHT22;66191;53.178;22.058;2023-01-28T09:22:50;1.70;99.90
28247;DHT22;66191;53.178;22.058;2023-01-28T09:25:22;1.70;99.90
28247;DHT22;66191;53.178;22.058;2023-01-28T09:27:53;1.70;99.90
28247;DHT22;66191;53.178;22.058;2023-01-28T09:30:27;1.80;99.90
28247;DHT22;66191;53.178;22.058;2023-01-28T09:32:59;1.80;99.90
28247;DHT22;66191;53.178;22.058;2023-01-28T09:35:29;1.80;99.90
28247;DHT22;66191;53.178;22.058;2023-01-28T09:38:00;1.70;99.90
28247;DHT22;66191;53.178;22.058;2023-01-28T09:40:33;1.70;99.90
28247;DHT22;66191;53.178;22.058;2023-01-28T09:43:19;1.70;99.90
28247;DHT22;66191;53.178;22.058;2023-01-28T09:46:02;1.70;99.90
28247;DHT22;66191;53.178;22.058;2023-01-28T09:48:36;1.70;99.90
28247;DHT22;66191;53.178;22.058;2023-01-28T09:51:09;1.70;99.90
28247;DHT22;66191;53.178;22.058;2023-01-28T09:53:44;1.70;99.90
28247;DHT22;66191;53.178;22.058;2023-01-28T09:56:24;1.80;99.90
28247;DHT22;66191;53.178;22.058;2023-01-28T09:58:57;1.80;99.90
28247;DHT22;66191;53.178;22.058;2023-01-28T10:01:37;1.80;99.90
28247;DHT22;66191;53.178;22.058;2023-01-28T10:04:20;1.80;99.90
28247;DHT22;66191;53.178;22.058;2023-01-28T10:07:08;1.80;99.90
28247;DHT22;66191;53.178;22.058;2023-01-28T10:09:45;1.80;99.90
28247;DHT22;66191;53.178;22.058;2023-01-28T10:12:38;1.80;99.90
28247;DHT22;66191;53.178;22.058;2023-01-28T10:18:13;1.90;99.90
28247;DHT22;66191;53.178;22.058;2023-01-28T10:20:48;1.80;99.90
28247;DHT22;66191;53.178;22.058;2023-01-28T10:23:23;1.80;99.90
28247;DHT22;66191;53.178;22.058;2023-01-28T10:25:58;1.90;99.90
28247;DHT22;66191;53.178;22.058;2023-01-28T10:28:29;1.90;99.90
28247;DHT22;66191;53.178;22.058;2023-01-28T10:31:01;1.90;99.90
28247;DHT22;66191;53.178;22.058;2023-01-28T10:33:35;1.90;99.90
28247;DHT22;66191;53.178;22.058;2023-01-28T10:36:08;1.90;99.90
28247;DHT22;66191;53.178;22.058;2023-01-28T10:38:39;1.90;99.90
28247;DHT22;66191;53.178;22.058;2023-01-28T10:41:12;2.00;99.90
28247;DHT22;66191;53.178;22.058;2023-01-28T10:43:48;2.00;99.90
28247;DHT22;66191;53.178;22.058;2023-01-28T10:46:22;2.00;99.90
28247;DHT22;66191;53.178;22.058;2023-01-28T10:49:01;2.00;99.90
28247;DHT22;66191;53.178;22.058;2023-01-28T10:51:34;1.90;99.90
28247;DHT22;66191;53.178;22.058;2023-01-28T10:54:18;1.80;99.90
28247;DHT22;66191;53.178;22.058;2023-01-28T10:56:53;1.80;99.90
28247;DHT22;66191;53.178;22.058;2023-01-28T10:59:26;1.70;99.90
28247;DHT22;66191;53.178;22.058;2023-01-28T11:01:59;1.70;99.90
28247;DHT22;66191;53.178;22.058;2023-01-28T11:04:35;1.70;99.90
28247;DHT22;66191;53.178;22.058;2023-01-28T11:07:16;1.70;99.90
28247;DHT22;66191;53.178;22.058;2023-01-28T11:09:49;1.80;99.90
28247;DHT22;66191;53.178;22.058;2023-01-28T11:12:22;1.80;99.90
28247;DHT22;66191;53.178;22.058;2023-01-28T11:14:55;1.80;99.90
28247;DHT22;66191;53.178;22.058;2023-01-28T11:17:28;1.70;99.90
28247;DHT22;66191;53.178;22.058;2023-01-28T11:20:10;1.70;99.90
28247;DHT22;66191;53.178;22.058;2023-01-28T11:22:42;1.70;99.90
28247;DHT22;66191;53.178;22.058;2023-01-28T11:25:18;1.70;99.90
28247;DHT22;66191;53.178;22.058;2023-01-28T11:27:51;1.70;99.90
28247;DHT22;66191;53.178;22.058;2023-01-28T11:30:24;1.60;99.90
28247;DHT22;66191;53.178;22.058;2023-01-28T11:32:59;1.70;99.90
28247;DHT22;66191;53.178;22.058;2023-01-28T11:35:38;1.70;99.90
28247;DHT22;66191;53.178;22.058;2023-01-28T11:38:17;1.70;99.90
28247;DHT22;66191;53.178;22.058;2023-01-28T11:40:52;1.70;99.90
28247;DHT22;66191;53.178;22.058;2023-01-28T11:43:25;1.70;99.90
28247;DHT22;66191;53.178;22.058;2023-01-28T11:46:02;1.60;99.90
28247;DHT22;66191;53.178;22.058;2023-01-28T11:48:46;1.60;99.90
28247;DHT22;66191;53.178;22.058;2023-01-28T11:51:33;1.50;99.90
28247;DHT22;66191;53.178;22.058;2023-01-28T11:54:26;1.50;99.90
28247;DHT22;66191;53.178;22.058;2023-01-28T11:57:21;1.50;99.90
28247;DHT22;66191;53.178;22.058;2023-01-28T12:00:01;1.50;99.90
28247;DHT22;66191;53.178;22.058;2023-01-28T12:02:45;1.50;99.90
28247;DHT22;66191;53.178;22.058;2023-01-28T12:05:37;1.40;99.90
28247;DHT22;66191;53.178;22.058;2023-01-28T12:08:19;1.40;99.90
28247;DHT22;66191;53.178;22.058;2023-01-28T12:11:08;1.50;99.90
28247;DHT22;66191;53.178;22.058;2023-01-28T12:13:55;1.50;99.90
28247;DHT22;66191;53.178;22.058;2023-01-28T12:16:48;1.40;99.90
28247;DHT22;66191;53.178;22.058;2023-01-28T12:19:49;1.40;99.90
28247;DHT22;66191;53.178;22.058;2023-01-28T12:22:40;1.40;99.90
28247;DHT22;66191;53.178;22.058;2023-01-28T12:28:21;1.40;99.90
28247;DHT22;66191;53.178;22.058;2023-01-28T12:34:04;1.30;99.90
28247;DHT22;66191;53.178;22.058;2023-01-28T12:36:46;1.30;99.90
28247;DHT22;66191;53.178;22.058;2023-01-28T12:39:30;1.30;99.90
28247;DHT22;66191;53.178;22.058;2023-01-28T12:42:09;1.30;99.90
28247;DHT22;66191;53.178;22.058;2023-01-28T12:44:46;1.20;99.90
28247;DHT22;66191;53.178;22.058;2023-01-28T12:47:23;1.20;99.90
28247;DHT22;66191;53.178;22.058;2023-01-28T12:50:00;1.20;99.90
28247;DHT22;66191;53.178;22.058;2023-01-28T12:52:35;1.20;99.90
28247;DHT22;66191;53.178;22.058;2023-01-28T12:55:14;1.20;99.90
28247;DHT22;66191;53.178;22.058;2023-01-28T12:57:48;1.20;99.90
28247;DHT22;66191;53.178;22.058;2023-01-28T13:00:24;1.20;99.90
28247;DHT22;66191;53.178;22.058;2023-01-28T13:03:04;1.20;99.90
28247;DHT22;66191;53.178;22.058;2023-01-28T13:05:43;1.20;99.90
28247;DHT22;66191;53.178;22.058;2023-01-28T13:08:20;1.20;99.90
28247;DHT22;66191;53.178;22.058;2023-01-28T13:10:54;1.20;99.90
28247;DHT22;66191;53.178;22.058;2023-01-28T13:13:31;1.20;99.90
28247;DHT22;66191;53.178;22.058;2023-01-28T13:16:04;1.20;99.90
28247;DHT22;66191;53.178;22.058;2023-01-28T13:18:43;1.20;99.90
28247;DHT22;66191;53.178;22.058;2023-01-28T13:21:34;1.20;99.90
28247;DHT22;66191;53.178;22.058;2023-01-28T13:24:30;1.20;99.90
28247;DHT22;66191;53.178;22.058;2023-01-28T13:27:11;1.10;99.90
28247;DHT22;66191;53.178;22.058;2023-01-28T13:29:47;1.10;99.90
28247;DHT22;66191;53.178;22.058;2023-01-28T13:32:31;1.10;99.90
28247;DHT22;66191;53.178;22.058;2023-01-28T13:35:06;1.10;99.90
28247;DHT22;66191;53.178;22.058;2023-01-28T13:37:43;1.10;99.90
28247;DHT22;66191;53.178;22.058;2023-01-28T13:40:24;1.10;99.90
28247;DHT22;66191;53.178;22.058;2023-01-28T13:42:59;1.00;99.90
28247;DHT22;66191;53.178;22.058;2023-01-28T13:45:33;1.00;99.90
28247;DHT22;66191;53.178;22.058;2023-01-28T13:48:17;1.00;99.90
28247;DHT22;66191;53.178;22.058;2023-01-28T13:50:52;1.00;99.90
28247;DHT22;66191;53.178;22.058;2023-01-28T13:53:38;1.00;99.90
28247;DHT22;66191;53.178;22.058;2023-01-28T13:56:19;1.00;99.90
28247;DHT22;66191;53.178;22.058;2023-01-28T13:59:13;1.00;99.90
28247;DHT22;66191;53.178;22.058;2023-01-28T14:01:59;1.00;99.90
28247;DHT22;66191;53.178;22.058;2023-01-28T14:10:48;0.90;99.90
28247;DHT22;66191;53.178;22.058;2023-01-28T14:16:32;0.90;99.90
28247;DHT22;66191;53.178;22.058;2023-01-28T14:19:11;0.90;99.90
28247;DHT22;66191;53.178;22.058;2023-01-28T14:21:45;0.90;99.90
28247;DHT22;66191;53.178;22.058;2023-01-28T14:24:17;0.90;99.90
28247;DHT22;66191;53.178;22.058;2023-01-28T14:26:54;1.00;99.90
28247;DHT22;66191;53.178;22.058;2023-01-28T14:29:43;0.90;99.90
28247;DHT22;66191;53.178;22.058;2023-01-28T14:32:18;1.00;99.90
28247;DHT22;66191;53.178;22.058;2023-01-28T14:34:52;1.00;99.90
28247;DHT22;66191;53.178;22.058;2023-01-28T14:37:28;1.00;99.90
28247;DHT22;66191;53.178;22.058;2023-01-28T14:40:01;1.10;99.90
28247;DHT22;66191;53.178;22.058;2023-01-28T14:42:36;1.00;99.90
28247;DHT22;66191;53.178;22.058;2023-01-28T14:45:18;1.00;99.90
28247;DHT22;66191;53.178;22.058;2023-01-28T14:48:07;1.00;99.90
28247;DHT22;66191;53.178;22.058;2023-01-28T14:51:05;1.00;99.90
28247;DHT22;66191;53.178;22.058;2023-01-28T14:54:00;1.00;99.90
28247;DHT22;66191;53.178;22.058;2023-01-28T14:56:43;1.00;99.90
28247;DHT22;66191;53.178;22.058;2023-01-28T14:59:21;1.00;99.90
28247;DHT22;66191;53.178;22.058;2023-01-28T15:01:55;1.00;99.90
28247;DHT22;66191;53.178;22.058;2023-01-28T15:04:29;1.00;99.90
28247;DHT22;66191;53.178;22.058;2023-01-28T15:07:16;1.00;99.90
28247;DHT22;66191;53.178;22.058;2023-01-28T15:09:58;1.00;99.90
28247;DHT22;66191;53.178;22.058;2023-01-28T15:12:31;1.00;99.90
28247;DHT22;66191;53.178;22.058;2023-01-28T15:15:10;1.00;99.90
28247;DHT22;66191;53.178;22.058;2023-01-28T15:17:42;1.00;99.90
28247;DHT22;66191;53.178;22.058;2023-01-28T15:20:18;1.00;99.90
28247;DHT22;66191;53.178;22.058;2023-01-28T15:22:53;0.90;99.90
28247;DHT22;66191;53.178;22.058;2023-01-28T15:25:27;0.90;99.90
28247;DHT22;66191;53.178;22.058;2023-01-28T15:28:00;0.90;99.90
28247;DHT22;66191;53.178;22.058;2023-01-28T15:30:31;0.90;99.90
28247;DHT22;66191;53.178;22.058;2023-01-28T15:33:04;0.90;99.90
28247;DHT22;66191;53.178;22.058;2023-01-28T15:35:36;0.90;99.90
28247;DHT22;66191;53.178;22.058;2023-01-28T15:38:10;0.90;99.90
28247;DHT22;66191;53.178;22.058;2023-01-28T15:40:42;0.90;99.90
28247;DHT22;66191;53.178;22.058;2023-01-28T15:43:22;0.80;99.90
28247;DHT22;66191;53.178;22.058;2023-01-28T15:45:55;0.80;99.90
28247;DHT22;66191;53.178;22.058;2023-01-28T15:48:30;0.80;99.90
28247;DHT22;66191;53.178;22.058;2023-01-28T15:51:05;0.80;99.90
28247;DHT22;66191;53.178;22.058;2023-01-28T15:53:42;0.80;99.90
28247;DHT22;66191;53.178;22.058;2023-01-28T15:56:15;0.80;99.90
28247;DHT22;66191;53.178;22.058;2023-01-28T15:58:46;0.80;99.90
28247;DHT22;66191;53.178;22.058;2023-01-28T16:01:18;0.80;99.90
28247;DHT22;66191;53.178;22.058;2023-01-28T16:04:00;0.80;99.90
28247;DHT22;66191;53.178;22.058;2023-01-28T16:06:35;0.80;99.90
28247;DHT22;66191;53.178;22.058;2023-01-28T16:09:20;0.80;99.90
28247;DHT22;66191;53.178;22.058;2023-01-28T16:11:59;0.80;99.90
28247;DHT22;66191;53.178;22.058;2023-01-28T16:14:34;0.80;99.90
28247;DHT22;66191;53.178;22.058;2023-01-28T16:17:07;0.80;99.90
28247;DHT22;66191;53.178;22.058;2023-01-28T16:19:40;0.80;99.90
28247;DHT22;66191;53.178;22.058;2023-01-28T16:22:18;0.80;99.90
28247;DHT22;66191;53.178;22.058;2023-01-28T16:24:53;0.80;99.90
28247;DHT22;66191;53.178;22.058;2023-01-28T16:27:25;0.70;99.90
28247;DHT22;66191;53.178;22.058;2023-01-28T16:29:58;0.80;99.90
28247;DHT22;66191;53.178;22.058;2023-01-28T16:32:33;0.80;99.90
28247;DHT22;66191;53.178;22.058;2023-01-28T16:35:12;0.80;99.90
28247;DHT22;66191;53.178;22.058;2023-01-28T16:37:46;0.80;99.90
28247;DHT22;66191;53.178;22.058;2023-01-28T16:40:21;0.80;99.90
28247;DHT22;66191;53.178;22.058;2023-01-28T16:42:53;0.80;99.90
28247;DHT22;66191;53.178;22.058;2023-01-28T16:45:25;0.80;99.90